createdAt,value
2019-02-08T00:00:03.695Z,1.60
2019-02-08T00:02:37.076Z,1.60
2019-02-08T00:05:09.072Z,1.60
2019-02-08T00:07:38.960Z,1.60
2019-02-08T00:10:20.594Z,1.60
2019-02-08T00:12:54.365Z,1.60
2019-02-08T00:15:32.724Z,1.60
2019-02-08T00:18:02.782Z,1.60
2019-02-08T00:20:42.525Z,1.60
2019-02-08T00:23:26.033Z,1.60
2019-02-08T00:25:50.656Z,1.60
2019-02-08T00:28:25.170Z,1.60
2019-02-08T00:30:56.775Z,1.60
2019-02-08T00:33:27.725Z,1.60
2019-02-08T00:35:58.673Z,1.60
2019-02-08T00:38:31.279Z,1.60
2019-02-08T00:41:01.151Z,1.60
2019-02-08T00:43:32.097Z,1.60
2019-02-08T00:46:08.209Z,1.60
2019-02-08T00:48:42.734Z,1.60
2019-02-08T00:51:14.882Z,1.60
2019-02-08T00:53:44.741Z,1.50
2019-02-08T00:56:14.595Z,1.60
2019-02-08T00:58:45.683Z,1.50
2019-02-08T01:01:18.019Z,1.50
2019-02-08T01:03:48.487Z,1.50
2019-02-08T01:06:18.400Z,1.50
2019-02-08T01:08:49.856Z,1.50
2019-02-08T01:11:21.011Z,1.40
2019-02-08T01:13:50.858Z,1.40
2019-02-08T01:16:23.842Z,1.40
2019-02-08T01:18:55.321Z,1.40
2019-02-08T01:21:26.811Z,1.40
2019-02-08T01:23:56.637Z,1.40
2019-02-08T01:29:05.957Z,1.30
2019-02-08T01:31:37.371Z,1.30
2019-02-08T01:34:09.715Z,1.30
2019-02-08T01:36:40.935Z,1.30
2019-02-08T01:39:13.209Z,1.30
2019-02-08T01:41:47.591Z,1.30
2019-02-08T01:44:18.037Z,1.20
2019-02-08T01:46:48.739Z,1.20
2019-02-08T01:49:21.233Z,1.20
2019-02-08T01:51:51.061Z,1.20
2019-02-08T01:54:20.907Z,1.20
2019-02-08T01:56:50.843Z,1.20
2019-02-08T01:59:20.701Z,1.20
2019-02-08T02:01:51.837Z,1.20
2019-02-08T02:04:21.682Z,1.20
2019-02-08T02:06:52.727Z,1.20
2019-02-08T02:09:27.284Z,1.20
2019-02-08T02:12:00.391Z,1.20
2019-02-08T02:14:31.363Z,1.30
2019-02-08T02:17:06.125Z,1.30
2019-02-08T02:19:36.359Z,1.30
2019-02-08T02:22:10.577Z,1.40
2019-02-08T02:24:41.591Z,1.40
2019-02-08T02:27:19.257Z,1.50
2019-02-08T02:29:53.585Z,1.50
2019-02-08T02:32:23.529Z,1.60
2019-02-08T02:34:58.685Z,1.60
2019-02-08T02:37:30.855Z,1.70
2019-02-08T02:40:01.379Z,1.70
2019-02-08T02:42:31.364Z,1.70
2019-02-08T02:45:03.294Z,1.80
2019-02-08T02:47:36.181Z,1.80
2019-02-08T02:50:11.288Z,1.80
2019-02-08T02:52:42.866Z,1.80
2019-02-08T02:55:22.430Z,1.80
2019-02-08T02:57:56.975Z,1.80
2019-02-08T03:00:47.751Z,1.80
2019-02-08T03:03:23.935Z,1.00
2019-02-08T03:05:57.263Z,1.80
2019-02-08T03:08:32.366Z,1.90
2019-02-08T03:11:19.990Z,1.90
2019-02-08T03:13:50.296Z,1.90
2019-02-08T03:16:26.021Z,1.90
2019-02-08T03:18:59.880Z,1.90
2019-02-08T03:21:30.780Z,1.90
2019-02-08T03:24:04.506Z,1.90
2019-02-08T03:26:36.242Z,1.90
2019-02-08T03:29:08.071Z,1.80
2019-02-08T03:31:40.159Z,1.80
2019-02-08T03:34:13.087Z,1.80
2019-02-08T03:36:44.692Z,1.80
2019-02-08T03:39:14.589Z,1.90
2019-02-08T03:41:44.465Z,1.90
2019-02-08T03:44:14.364Z,1.90
2019-02-08T03:46:44.181Z,1.90
2019-02-08T03:49:15.180Z,1.90
2019-02-08T03:51:45.867Z,1.80
2019-02-08T03:54:20.875Z,1.80
2019-02-08T03:56:48.414Z,1.80
2019-02-08T03:59:23.019Z,1.80
2019-02-08T04:01:53.735Z,1.70
2019-02-08T04:04:25.228Z,1.70
2019-02-08T04:06:56.453Z,1.70
2019-02-08T04:09:29.704Z,1.70
2019-02-08T04:12:03.008Z,1.60
2019-02-08T04:14:34.703Z,1.60
2019-02-08T04:17:06.598Z,1.60
2019-02-08T04:19:39.419Z,1.60
2019-02-08T04:22:11.335Z,1.60
2019-02-08T04:24:45.227Z,1.50
2019-02-08T04:27:16.458Z,1.50
2019-02-08T04:29:49.189Z,1.50
2019-02-08T04:35:47.997Z,1.50
2019-02-08T04:38:30.615Z,1.50
2019-02-08T04:41:06.602Z,1.40
2019-02-08T04:43:45.063Z,1.40
2019-02-08T04:46:28.671Z,1.40
2019-02-08T04:49:10.261Z,1.40
2019-02-08T04:51:54.403Z,1.40
2019-02-08T04:54:38.266Z,1.40
2019-02-08T05:00:22.223Z,1.40
2019-02-08T05:02:55.621Z,1.40
2019-02-08T05:05:35.564Z,1.40
2019-02-08T05:26:46.935Z,1.40
2019-02-08T05:29:27.423Z,1.40
2019-02-08T05:30:19.248Z,1.40
2019-02-08T05:32:09.634Z,1.40
2019-02-08T05:41:25.739Z,1.40
2019-02-08T06:03:14.549Z,1.30
2019-02-08T06:09:26.765Z,1.30
2019-02-08T06:12:11.475Z,1.40
2019-02-08T06:15:02.617Z,1.40
2019-02-08T06:17:32.969Z,1.30
2019-02-08T06:20:17.656Z,1.40
2019-02-08T06:44:41.597Z,1.60
2019-02-08T06:51:07.820Z,1.70
2019-02-08T07:15:56.664Z,1.90
2019-02-08T07:18:32.214Z,2.00
2019-02-08T07:21:28.065Z,2.00
2019-02-08T07:24:07.272Z,2.00
2019-02-08T07:26:50.371Z,2.00
2019-02-08T07:29:59.497Z,2.10
2019-02-08T07:33:00.816Z,2.10
2019-02-08T07:42:38.556Z,2.30
2019-02-08T07:45:32.567Z,2.40
2019-02-08T07:48:15.707Z,2.60
2019-02-08T07:50:47.105Z,2.90
2019-02-08T07:53:26.774Z,3.20
2019-02-08T07:56:00.868Z,3.30
2019-02-08T07:58:44.823Z,3.50
2019-02-08T08:01:16.808Z,3.70
2019-02-08T08:04:01.478Z,3.80
2019-02-08T08:06:32.114Z,3.80
2019-02-08T08:09:09.709Z,3.80
2019-02-08T08:11:41.914Z,4.00
2019-02-08T08:14:25.187Z,4.20
2019-02-08T08:17:13.000Z,4.50
2019-02-08T08:19:45.496Z,4.60
2019-02-08T08:22:28.292Z,4.70
2019-02-08T08:25:18.452Z,4.90
2019-02-08T08:27:53.330Z,5.10
2019-02-08T08:30:27.942Z,5.20
2019-02-08T08:33:00.779Z,5.40
2019-02-08T08:35:58.152Z,5.50
2019-02-08T08:38:51.150Z,5.60
2019-02-08T08:44:59.313Z,5.50
2019-02-08T08:47:52.032Z,5.60
2019-02-08T08:50:37.127Z,5.50
2019-02-08T08:53:45.924Z,5.50
2019-02-08T08:56:52.122Z,5.60
2019-02-08T08:59:30.176Z,5.70
2019-02-08T09:05:42.516Z,5.90
2019-02-08T09:08:34.750Z,5.90
2019-02-08T09:11:30.764Z,5.30
2019-02-08T09:14:26.357Z,5.00
2019-02-08T09:20:39.114Z,4.40
2019-02-08T09:23:23.343Z,4.20
2019-02-08T09:26:26.388Z,4.10
2019-02-08T09:29:28.637Z,4.00
2019-02-08T09:35:50.648Z,3.90
2019-02-08T09:39:10.922Z,3.90
2019-02-08T09:42:40.661Z,3.90
2019-02-08T09:45:44.402Z,3.90
2019-02-08T09:48:30.785Z,4.10
2019-02-08T09:51:23.424Z,4.10
2019-02-08T09:54:15.511Z,4.30
2019-02-08T09:57:17.595Z,4.30
2019-02-08T10:00:09.876Z,4.40
2019-02-08T10:03:03.373Z,4.40
2019-02-08T10:05:54.213Z,4.50
2019-02-08T10:08:44.981Z,4.80
2019-02-08T10:11:36.716Z,4.80
2019-02-08T10:14:36.207Z,5.10
2019-02-08T10:17:41.659Z,5.60
2019-02-08T10:20:27.951Z,6.20
2019-02-08T10:23:35.292Z,6.60
2019-02-08T10:26:39.007Z,6.70
2019-02-08T10:29:34.659Z,7.00
2019-02-08T10:32:30.758Z,7.50
2019-02-08T10:35:30.335Z,7.60
2019-02-08T10:38:27.353Z,7.80
2019-02-08T10:41:20.151Z,7.70
2019-02-08T10:44:30.463Z,7.50
2019-02-08T10:47:12.099Z,7.50
2019-02-08T10:50:11.693Z,7.70
2019-02-08T10:52:46.831Z,7.60
2019-02-08T10:55:48.282Z,7.70
2019-02-08T10:58:42.590Z,7.60
2019-02-08T11:01:42.023Z,7.70
2019-02-08T11:04:39.680Z,7.60
2019-02-08T11:07:41.948Z,7.60
2019-02-08T11:10:37.170Z,8.00
2019-02-08T11:13:21.680Z,8.20
2019-02-08T11:19:27.961Z,8.40
2019-02-08T11:21:58.238Z,8.40
2019-02-08T11:24:33.460Z,8.10
2019-02-08T11:27:08.300Z,7.90
2019-02-08T11:30:26.185Z,8.00
2019-02-08T11:32:59.745Z,8.30
2019-02-08T11:35:56.449Z,8.60
2019-02-08T11:38:29.884Z,8.50
2019-02-08T11:41:00.662Z,8.80
2019-02-08T11:43:42.528Z,8.50
2019-02-08T11:46:18.235Z,8.40
2019-02-08T11:49:00.180Z,8.60
2019-02-08T11:51:31.574Z,8.90
2019-02-08T11:54:07.422Z,9.40
2019-02-08T11:56:40.415Z,9.50
2019-02-08T11:59:11.992Z,9.50
2019-02-08T12:01:43.208Z,9.30
2019-02-08T12:04:17.836Z,9.20
2019-02-08T12:06:50.656Z,9.00
2019-02-08T12:09:23.875Z,9.00
2019-02-08T12:14:58.883Z,9.20
2019-02-08T12:17:32.276Z,9.30
2019-02-08T12:20:10.512Z,9.40
2019-02-08T12:22:44.687Z,9.20
2019-02-08T12:25:22.399Z,9.30
2019-02-08T12:27:59.783Z,9.20
2019-02-08T12:30:42.634Z,9.50
2019-02-08T12:33:19.924Z,9.50
2019-02-08T12:36:05.228Z,9.40
2019-02-08T12:38:47.798Z,9.70
2019-02-08T12:44:24.560Z,9.90
2019-02-08T12:46:56.108Z,10.40
2019-02-08T12:49:27.663Z,10.70
2019-02-08T12:52:02.218Z,10.40
2019-02-08T12:54:44.115Z,10.00
2019-02-08T12:57:15.612Z,10.00
2019-02-08T12:59:45.874Z,9.50
2019-02-08T13:02:17.735Z,9.40
2019-02-08T13:04:50.746Z,9.20
2019-02-08T13:07:25.036Z,9.40
2019-02-08T13:09:57.216Z,9.50
2019-02-08T13:12:30.982Z,9.90
2019-02-08T13:15:03.570Z,10.40
2019-02-08T13:17:36.382Z,11.00
2019-02-08T13:20:12.626Z,11.60
2019-02-08T13:22:50.344Z,11.70
2019-02-08T13:25:27.382Z,12.10
2019-02-08T13:28:00.839Z,12.30
2019-02-08T13:30:33.092Z,12.20
2019-02-08T13:33:11.483Z,12.50
2019-02-08T13:35:43.235Z,12.60
2019-02-08T13:38:13.116Z,12.40
2019-02-08T13:40:44.314Z,12.10
2019-02-08T13:43:16.996Z,11.70
2019-02-08T13:45:48.126Z,11.70
2019-02-08T13:48:18.544Z,11.30
2019-02-08T13:50:48.752Z,11.10
2019-02-08T13:53:19.343Z,10.90
2019-02-08T13:58:31.072Z,10.80
2019-02-08T14:01:01.146Z,11.00
2019-02-08T14:03:32.750Z,10.80
2019-02-08T14:06:06.502Z,11.00
2019-02-08T14:08:36.371Z,11.20
2019-02-08T14:11:08.337Z,11.30
2019-02-08T14:13:43.172Z,11.20
2019-02-08T14:16:14.508Z,11.30
2019-02-08T14:18:46.012Z,11.40
2019-02-08T14:21:18.637Z,10.90
2019-02-08T14:23:54.718Z,10.60
2019-02-08T14:26:32.049Z,10.20
2019-02-08T14:29:09.155Z,9.90
2019-02-08T14:31:47.144Z,9.60
2019-02-08T14:34:18.947Z,9.40
2019-02-08T14:36:51.876Z,9.20
2019-02-08T14:39:34.734Z,8.90
2019-02-08T14:42:04.955Z,8.90
2019-02-08T14:44:37.440Z,8.70
2019-02-08T14:47:07.136Z,8.40
2019-02-08T14:49:43.344Z,8.50
2019-02-08T14:52:22.143Z,8.20
2019-02-08T14:54:50.565Z,8.00
2019-02-08T14:57:26.781Z,7.70
2019-02-08T14:59:59.444Z,7.40
2019-02-08T15:02:32.227Z,7.10
2019-02-08T15:05:03.831Z,6.80
2019-02-08T15:07:39.335Z,6.70
2019-02-08T15:10:30.061Z,6.60
2019-02-08T15:13:05.692Z,6.40
2019-02-08T15:15:36.591Z,6.30
2019-02-08T15:18:08.875Z,6.20
2019-02-08T15:20:46.969Z,6.10
2019-02-08T15:23:27.421Z,6.10
2019-02-08T15:26:00.809Z,5.90
2019-02-08T15:28:36.934Z,5.90
2019-02-08T15:31:15.043Z,5.80
2019-02-08T15:34:00.478Z,5.70
2019-02-08T15:36:33.965Z,5.60
2019-02-08T15:39:09.715Z,5.50
2019-02-08T15:41:46.531Z,5.40
2019-02-08T15:44:26.439Z,5.30
2019-02-08T15:47:16.773Z,5.10
2019-02-08T15:49:49.083Z,5.00
2019-02-08T15:52:22.095Z,4.90
2019-02-08T15:55:04.756Z,4.90
2019-02-08T15:57:52.335Z,4.80
2019-02-08T16:00:28.911Z,4.70
2019-02-08T16:03:00.628Z,4.70
2019-02-08T16:05:34.024Z,4.60
2019-02-08T16:08:40.450Z,4.60
2019-02-08T16:11:16.303Z,4.50
2019-02-08T16:13:49.320Z,4.50
2019-02-08T16:16:27.964Z,4.50
2019-02-08T16:19:05.660Z,4.50
2019-02-08T16:21:45.145Z,4.50
2019-02-08T16:24:30.830Z,4.50
2019-02-08T16:27:11.120Z,4.50
2019-02-08T16:29:52.662Z,4.50
2019-02-08T16:32:29.080Z,4.50
2019-02-08T16:35:06.019Z,4.50
2019-02-08T16:37:52.931Z,4.40
2019-02-08T16:40:34.865Z,4.40
2019-02-08T16:43:09.688Z,4.40
2019-02-08T16:45:48.380Z,4.40
2019-02-08T16:48:18.965Z,4.40
2019-02-08T16:50:51.470Z,4.40
2019-02-08T16:53:24.357Z,4.40
2019-02-08T16:55:56.776Z,4.40
2019-02-08T16:58:26.639Z,4.40
2019-02-08T17:01:02.127Z,4.40
2019-02-08T17:03:36.796Z,4.30
2019-02-08T17:06:21.367Z,4.30
2019-02-08T17:08:56.342Z,4.30
2019-02-08T17:14:21.935Z,4.30
2019-02-08T17:16:57.216Z,4.30
2019-02-08T17:19:36.359Z,4.30
2019-02-08T17:22:07.652Z,4.30
2019-02-08T17:24:41.662Z,4.20
2019-02-08T17:27:15.982Z,4.20
2019-02-08T17:29:56.335Z,4.20
2019-02-08T17:32:29.174Z,4.20
2019-02-08T17:35:01.341Z,4.20
2019-02-08T17:37:31.780Z,4.20
2019-02-08T17:40:01.581Z,4.10
2019-02-08T17:42:32.008Z,4.10
2019-02-08T17:48:36.822Z,4.10
2019-02-08T17:51:15.052Z,4.00
2019-02-08T17:53:59.332Z,4.00
2019-02-08T17:59:47.520Z,4.00
2019-02-08T18:07:56.964Z,3.90
2019-02-08T18:10:33.746Z,3.90
2019-02-08T18:18:59.853Z,3.90
2019-02-08T18:21:40.319Z,3.80
2019-02-08T18:24:18.527Z,3.80
2019-02-08T18:26:53.846Z,3.80
2019-02-08T18:29:25.618Z,4.00
2019-02-08T18:31:57.038Z,3.80
2019-02-08T18:37:12.159Z,3.70
2019-02-08T18:39:47.224Z,3.70
2019-02-08T18:42:18.249Z,3.60
2019-02-08T18:44:50.619Z,3.60
2019-02-08T18:47:20.466Z,3.60
2019-02-08T18:49:55.021Z,3.50
2019-02-08T18:52:31.029Z,3.50
2019-02-08T18:55:02.020Z,3.50
2019-02-08T18:57:34.702Z,3.40
2019-02-08T19:00:14.562Z,3.40
2019-02-08T19:02:47.349Z,3.30
2019-02-08T19:05:20.217Z,3.30
2019-02-08T19:07:51.537Z,3.30
2019-02-08T19:10:24.485Z,3.20
2019-02-08T19:12:55.423Z,3.20
2019-02-08T19:15:26.966Z,3.10
2019-02-08T19:17:57.359Z,3.10
2019-02-08T19:20:33.966Z,3.10
2019-02-08T19:23:03.974Z,3.00
2019-02-08T19:25:40.591Z,3.00
2019-02-08T19:28:12.739Z,2.90
2019-02-08T19:30:45.294Z,2.90
2019-02-08T19:33:21.794Z,2.90
2019-02-08T19:35:58.509Z,2.80
2019-02-08T19:38:39.605Z,2.80
2019-02-08T19:41:11.422Z,2.70
2019-02-08T19:43:43.991Z,2.70
2019-02-08T19:46:15.872Z,2.70
2019-02-08T19:48:46.750Z,2.60
2019-02-08T19:51:23.211Z,2.60
2019-02-08T19:54:01.862Z,2.50
2019-02-08T19:56:33.674Z,2.50
2019-02-08T19:59:06.075Z,2.40
2019-02-08T20:01:42.855Z,2.40
2019-02-08T20:04:15.750Z,2.40
2019-02-08T20:47:47.813Z,2.80
2019-02-08T20:50:28.323Z,2.80
2019-02-08T20:53:04.467Z,2.90
2019-02-08T20:55:40.182Z,2.90
2019-02-08T20:58:17.935Z,2.90
2019-02-08T21:04:23.283Z,3.00
2019-02-08T21:06:55.931Z,3.00
2019-02-08T21:09:33.378Z,3.00
2019-02-08T21:12:14.112Z,3.00
2019-02-08T21:14:58.011Z,3.00
2019-02-08T21:17:40.075Z,3.00
2019-02-08T21:20:27.517Z,3.00
2019-02-08T21:22:58.487Z,3.10
2019-02-08T21:25:31.442Z,3.10
2019-02-08T21:28:07.723Z,3.00
2019-02-08T21:30:39.827Z,3.00
2019-02-08T21:33:12.467Z,3.00
2019-02-08T21:36:03.091Z,2.90
2019-02-08T21:38:33.156Z,2.80
2019-02-08T21:41:11.380Z,2.80
2019-02-08T21:43:42.807Z,2.70
2019-02-08T21:46:15.725Z,2.60
2019-02-08T21:48:49.571Z,2.60
2019-02-08T21:51:23.602Z,2.60
2019-02-08T21:53:58.858Z,2.60
2019-02-08T21:56:31.162Z,2.60
2019-02-08T21:59:06.305Z,2.60
2019-02-08T22:01:40.848Z,2.60
2019-02-08T22:04:12.412Z,2.60
2019-02-08T22:06:43.897Z,2.60
2019-02-08T22:09:15.372Z,2.60
2019-02-08T22:11:48.413Z,2.70
2019-02-08T22:14:26.945Z,2.70
2019-02-08T22:17:00.831Z,2.70
2019-02-08T22:19:43.267Z,2.70
2019-02-08T22:22:16.952Z,2.70
2019-02-08T22:24:51.730Z,2.70
2019-02-08T22:27:30.972Z,2.70
2019-02-08T22:30:02.761Z,2.70
2019-02-08T22:32:43.464Z,2.70
2019-02-08T22:35:24.000Z,2.70
2019-02-08T22:38:13.890Z,2.70
2019-02-08T22:40:49.695Z,2.70
2019-02-08T22:43:30.007Z,2.70
2019-02-08T22:46:09.830Z,2.70
2019-02-08T22:48:43.357Z,2.70
2019-02-08T22:51:16.460Z,2.70
2019-02-08T22:53:48.409Z,2.70
2019-02-08T22:56:22.569Z,2.70
2019-02-08T22:58:54.250Z,2.70
2019-02-08T23:01:34.394Z,2.70
2019-02-08T23:04:08.335Z,2.60
2019-02-08T23:06:44.606Z,2.60
2019-02-08T23:09:24.807Z,2.60
2019-02-08T23:11:58.637Z,2.60
2019-02-08T23:14:30.627Z,2.60
2019-02-08T23:17:00.416Z,2.50
2019-02-08T23:19:30.331Z,2.50
2019-02-08T23:22:01.615Z,2.50
2019-02-08T23:24:31.512Z,2.50
2019-02-08T23:27:02.113Z,2.50
2019-02-08T23:29:32.005Z,2.50
2019-02-08T23:32:02.833Z,2.60
2019-02-08T23:34:39.536Z,2.60
2019-02-08T23:37:12.248Z,2.70
2019-02-08T23:39:44.489Z,2.70
2019-02-08T23:42:15.772Z,2.70
2019-02-08T23:44:47.363Z,2.70
2019-02-08T23:47:17.175Z,2.70
2019-02-08T23:49:48.061Z,2.70
2019-02-08T23:52:17.975Z,2.60
2019-02-08T23:54:49.233Z,2.60
2019-02-08T23:57:19.088Z,2.60
2019-02-08T23:59:50.193Z,2.50
